TAF and METAR

Decoding for American and Canadian METARs and TAFs is not fully implemented.

Could not understand the following METAR

PAOR 020253Z 00000KT 10SM SCT180 BKN220 M17/M19 A2910 RMK AO2 SLP914 T11671194 58004

TAF for Northway Airport

PAOR 012324Z 0200/0224 00000KT P6SM FEW100 FEW160 FEW190 FM021800 00000KT P6SM VCSH OVC015 FM022100 00000KT P6SM -SHSN OVC007
Report created 2. des 00:24

between 2. des 01:00 - 2. des 01:00

wind 0 knots from N (000°)
Northway Airport in United States of America at 523m

Latest 5 airports